createdAt,value
2022-10-10T00:02:22.214Z,21.62
2022-10-10T00:04:48.822Z,21.63
2022-10-10T00:07:15.140Z,21.64
2022-10-10T00:09:41.441Z,21.62
2022-10-10T00:12:07.759Z,21.63
2022-10-10T00:14:34.073Z,21.63
2022-10-10T00:17:00.405Z,21.62
2022-10-10T00:19:26.709Z,21.61
2022-10-10T00:21:53.018Z,21.61
2022-10-10T00:24:19.331Z,21.62
2022-10-10T00:26:45.668Z,21.59
2022-10-10T00:29:11.985Z,21.60
2022-10-10T00:31:38.299Z,21.60
2022-10-10T00:34:04.621Z,21.59
2022-10-10T00:36:30.962Z,21.60
2022-10-10T00:38:57.275Z,21.59
2022-10-10T00:41:24.056Z,21.58
2022-10-10T00:44:02.435Z,21.59
2022-10-10T00:46:28.775Z,21.57
2022-10-10T00:48:55.092Z,21.58
2022-10-10T00:51:21.418Z,21.58
2022-10-10T00:53:48.637Z,21.57
2022-10-10T00:56:15.204Z,21.57
2022-10-10T00:58:42.217Z,21.56
2022-10-10T01:01:08.602Z,21.56
2022-10-10T01:03:34.923Z,21.57
2022-10-10T01:06:01.243Z,21.55
2022-10-10T01:08:27.574Z,21.56
2022-10-10T01:11:12.170Z,21.54
2022-10-10T01:13:52.353Z,21.54
2022-10-10T01:16:22.199Z,21.51
2022-10-10T01:18:52.344Z,21.53
2022-10-10T01:21:30.738Z,21.52
2022-10-10T01:24:15.800Z,21.51
2022-10-10T01:26:58.215Z,21.51
2022-10-10T01:29:26.508Z,21.51
2022-10-10T01:31:54.270Z,21.50
2022-10-10T01:34:25.835Z,21.49
2022-10-10T01:36:59.109Z,21.50
2022-10-10T01:39:35.292Z,21.50
2022-10-10T01:42:03.275Z,21.49
2022-10-10T01:44:29.585Z,21.48
2022-10-10T01:46:55.912Z,21.48
2022-10-10T01:49:22.946Z,21.48
2022-10-10T01:52:08.061Z,21.48
2022-10-10T01:54:37.155Z,21.47
2022-10-10T01:57:18.142Z,21.47
2022-10-10T02:00:02.348Z,21.47
2022-10-10T02:02:33.262Z,21.46
2022-10-10T02:05:04.708Z,21.46
2022-10-10T02:07:44.237Z,21.44
2022-10-10T02:10:10.599Z,21.43
2022-10-10T02:12:36.914Z,21.43
2022-10-10T02:15:06.158Z,21.43
2022-10-10T02:17:33.109Z,21.43
2022-10-10T02:19:59.460Z,21.43
2022-10-10T02:22:25.924Z,21.44
2022-10-10T02:24:52.257Z,21.42
2022-10-10T02:27:20.696Z,21.42
2022-10-10T02:29:47.024Z,21.42
2022-10-10T02:32:19.527Z,21.41
2022-10-10T02:34:46.973Z,21.40
2022-10-10T02:37:13.467Z,21.40
2022-10-10T02:39:43.935Z,21.41
2022-10-10T02:42:10.281Z,21.40
2022-10-10T02:44:36.854Z,21.40
2022-10-10T02:47:03.161Z,21.40
2022-10-10T02:49:30.294Z,21.41
2022-10-10T02:51:56.655Z,21.43
2022-10-10T02:54:22.995Z,21.44
2022-10-10T02:56:49.307Z,21.46
2022-10-10T02:59:15.638Z,21.46
2022-10-10T03:01:41.952Z,21.48
2022-10-10T03:04:08.265Z,21.50
2022-10-10T03:06:34.581Z,21.51
2022-10-10T03:09:00.922Z,21.50
2022-10-10T03:11:27.237Z,21.48
2022-10-10T03:13:53.554Z,21.51
2022-10-10T03:16:19.861Z,21.50
2022-10-10T03:18:46.174Z,21.51
2022-10-10T03:21:12.494Z,21.51
2022-10-10T03:23:38.829Z,21.52
2022-10-10T03:26:05.153Z,21.53
2022-10-10T03:28:31.496Z,21.53
2022-10-10T03:30:57.823Z,21.56
2022-10-10T03:33:24.139Z,21.55
2022-10-10T03:35:50.508Z,21.56
2022-10-10T03:38:17.099Z,21.55
2022-10-10T03:40:43.617Z,21.56
2022-10-10T03:43:10.606Z,21.55
2022-10-10T03:45:36.930Z,21.57
2022-10-10T03:48:03.394Z,21.57
2022-10-10T03:50:29.721Z,21.57
2022-10-10T03:52:56.043Z,21.58
2022-10-10T03:55:22.407Z,21.58
2022-10-10T03:57:48.727Z,21.58
2022-10-10T04:00:15.067Z,21.59
2022-10-10T04:02:41.379Z,21.59
2022-10-10T04:05:07.932Z,21.59
2022-10-10T04:07:34.249Z,21.58
2022-10-10T04:10:00.630Z,21.58
2022-10-10T04:12:26.944Z,21.58
2022-10-10T04:14:53.245Z,21.59
2022-10-10T04:17:19.555Z,21.59
2022-10-10T04:19:45.869Z,21.59
2022-10-10T04:22:12.363Z,21.60
2022-10-10T04:24:38.679Z,21.63
2022-10-10T04:27:05.015Z,21.62
2022-10-10T04:29:31.341Z,21.62
2022-10-10T04:31:57.642Z,21.63
2022-10-10T04:34:23.967Z,21.63
2022-10-10T04:36:50.284Z,21.64
2022-10-10T04:39:16.602Z,21.64
2022-10-10T04:41:42.919Z,21.63
2022-10-10T04:44:09.243Z,21.64
2022-10-10T04:46:35.563Z,21.62
2022-10-10T04:49:01.916Z,21.61
2022-10-10T04:51:28.229Z,21.63
2022-10-10T04:53:54.568Z,21.63
2022-10-10T04:56:20.891Z,21.69
2022-10-10T04:58:47.214Z,21.70
2022-10-10T05:01:13.549Z,21.72
2022-10-10T05:03:39.942Z,21.72
2022-10-10T05:06:06.309Z,21.72
2022-10-10T05:08:32.639Z,21.65
2022-10-10T05:10:58.977Z,21.60
2022-10-10T05:13:25.319Z,21.43
2022-10-10T05:15:52.212Z,21.52
2022-10-10T05:18:19.107Z,21.58
2022-10-10T05:20:47.609Z,21.61
2022-10-10T05:23:14.174Z,21.63
2022-10-10T05:25:42.878Z,21.64
2022-10-10T05:28:09.251Z,21.64
2022-10-10T05:30:35.603Z,21.67
2022-10-10T05:33:01.937Z,21.67
2022-10-10T05:35:28.241Z,21.69
2022-10-10T05:37:54.571Z,21.69
2022-10-10T05:40:20.917Z,21.69
2022-10-10T05:42:47.242Z,21.69
2022-10-10T05:45:13.572Z,21.82
2022-10-10T05:47:39.927Z,22.25
2022-10-10T05:50:06.514Z,22.55
2022-10-10T05:52:33.059Z,22.69
2022-10-10T05:54:59.378Z,22.72
2022-10-10T05:57:25.747Z,22.80
2022-10-10T05:59:52.078Z,22.82
2022-10-10T06:02:21.152Z,22.96
2022-10-10T06:04:47.502Z,23.03
2022-10-10T06:07:13.843Z,23.09
2022-10-10T06:09:40.170Z,23.09
2022-10-10T06:12:06.487Z,23.10
2022-10-10T06:14:32.827Z,23.13
2022-10-10T06:16:59.235Z,23.11
2022-10-10T06:19:25.738Z,23.02
2022-10-10T06:21:52.062Z,22.97
2022-10-10T06:24:18.390Z,23.14
2022-10-10T06:26:44.716Z,23.12
2022-10-10T06:29:11.031Z,23.17
2022-10-10T06:31:39.454Z,23.20
2022-10-10T06:34:06.000Z,23.17
2022-10-10T06:36:32.304Z,23.20
2022-10-10T06:38:58.634Z,23.17
2022-10-10T06:41:24.960Z,23.25
2022-10-10T06:43:51.783Z,22.92
2022-10-10T06:46:18.222Z,23.06
2022-10-10T06:48:44.541Z,22.94
2022-10-10T06:51:12.915Z,22.49
2022-10-10T06:53:39.250Z,22.64
2022-10-10T06:56:05.568Z,23.02
2022-10-10T06:58:31.901Z,23.24
2022-10-10T07:00:59.275Z,23.14
2022-10-10T07:03:25.848Z,23.10
2022-10-10T07:05:52.458Z,22.77
2022-10-10T07:08:19.454Z,22.76
2022-10-10T07:10:46.287Z,22.71
2022-10-10T07:13:12.938Z,22.73
2022-10-10T07:15:39.255Z,22.78
2022-10-10T07:18:05.578Z,22.96
2022-10-10T07:20:31.967Z,23.08
2022-10-10T07:22:58.294Z,23.26
2022-10-10T07:25:24.740Z,22.48
2022-10-10T07:27:51.078Z,22.22
2022-10-10T07:30:17.416Z,22.09
2022-10-10T07:32:43.782Z,22.09
2022-10-10T07:35:10.120Z,22.09
2022-10-10T07:37:36.623Z,22.09
2022-10-10T07:40:02.997Z,22.13
2022-10-10T07:42:29.347Z,22.12
2022-10-10T07:44:55.662Z,22.08
2022-10-10T07:47:22.048Z,22.12
2022-10-10T07:49:48.366Z,22.12
2022-10-10T07:52:14.695Z,22.13
2022-10-10T07:54:41.073Z,22.12
2022-10-10T07:57:07.382Z,22.21
2022-10-10T07:59:33.706Z,22.52
2022-10-10T08:02:00.137Z,22.57
2022-10-10T08:04:26.527Z,22.68
2022-10-10T08:06:52.837Z,22.80
2022-10-10T08:09:19.155Z,22.68
2022-10-10T08:11:45.470Z,22.75
2022-10-10T08:14:11.787Z,22.83
2022-10-10T08:16:41.017Z,22.84
2022-10-10T08:19:07.416Z,22.81
2022-10-10T08:21:36.000Z,22.75
2022-10-10T08:24:02.665Z,22.86
2022-10-10T08:26:28.969Z,22.94
2022-10-10T08:28:55.272Z,22.79
2022-10-10T08:31:21.628Z,22.85
2022-10-10T08:33:48.074Z,22.84
2022-10-10T08:36:15.494Z,22.87
2022-10-10T08:38:41.836Z,22.95
2022-10-10T08:41:13.814Z,22.94
2022-10-10T08:43:49.698Z,22.75
2022-10-10T08:46:27.077Z,22.94
2022-10-10T08:48:55.675Z,22.97
2022-10-10T08:51:25.188Z,22.98
2022-10-10T08:53:52.047Z,22.93
2022-10-10T08:56:20.886Z,22.86
2022-10-10T08:58:48.279Z,22.93
2022-10-10T09:01:15.858Z,22.90
2022-10-10T09:03:45.269Z,22.92
2022-10-10T09:06:19.204Z,22.79
2022-10-10T09:08:49.466Z,22.74
2022-10-10T09:11:28.219Z,22.73
2022-10-10T09:14:00.829Z,22.87
2022-10-10T09:16:33.118Z,22.93
2022-10-10T09:19:12.493Z,22.72
2022-10-10T09:21:41.182Z,22.74
2022-10-10T09:24:10.449Z,22.90
2022-10-10T09:26:41.330Z,22.95
2022-10-10T09:29:23.342Z,22.67
2022-10-10T09:31:54.364Z,22.34
2022-10-10T09:34:32.190Z,22.41
2022-10-10T09:37:00.392Z,22.30
2022-10-10T09:39:37.189Z,22.17
2022-10-10T09:42:04.321Z,22.45
2022-10-10T09:44:30.659Z,22.57
2022-10-10T09:46:57.951Z,22.82
2022-10-10T09:49:24.323Z,22.88
2022-10-10T09:51:50.698Z,22.92
2022-10-10T09:54:17.702Z,23.04
2022-10-10T09:56:56.789Z,22.98
2022-10-10T09:59:39.403Z,22.97
2022-10-10T10:02:15.754Z,22.98
2022-10-10T10:04:42.072Z,23.03
2022-10-10T10:07:17.668Z,23.09
2022-10-10T10:09:46.994Z,23.05
2022-10-10T10:12:13.312Z,22.59
2022-10-10T10:14:39.631Z,22.45
2022-10-10T10:17:13.378Z,22.21
2022-10-10T10:19:40.562Z,22.47
2022-10-10T10:22:26.305Z,22.72
2022-10-10T10:24:53.164Z,22.86
2022-10-10T10:27:21.633Z,22.78
2022-10-10T10:29:51.463Z,22.71
2022-10-10T10:32:31.852Z,22.80
2022-10-10T10:35:04.739Z,22.71
2022-10-10T10:37:35.163Z,22.46
2022-10-10T10:40:20.229Z,22.65
2022-10-10T10:43:09.586Z,22.76
2022-10-10T10:45:39.051Z,22.91
2022-10-10T10:48:09.948Z,22.82
2022-10-10T10:50:42.985Z,22.91
2022-10-10T10:53:17.672Z,22.78
2022-10-10T10:55:49.599Z,22.73
2022-10-10T10:59:05.795Z,22.92
2022-10-10T11:01:44.947Z,23.00
2022-10-10T11:05:15.951Z,22.97
2022-10-10T11:07:17.676Z,22.93
2022-10-10T11:09:51.366Z,22.96
2022-10-10T11:12:21.878Z,23.06
2022-10-10T11:14:58.116Z,23.13
2022-10-10T11:17:24.387Z,23.14
2022-10-10T11:19:56.712Z,23.14
2022-10-10T11:22:24.985Z,22.97
2022-10-10T11:25:03.406Z,22.77
2022-10-10T11:27:43.094Z,22.50
2022-10-10T11:30:15.855Z,22.71
2022-10-10T11:32:56.480Z,22.83
2022-10-10T11:35:24.867Z,22.90
2022-10-10T11:37:53.322Z,23.06
2022-10-10T11:40:24.993Z,23.10
2022-10-10T11:42:52.801Z,23.12
2022-10-10T11:45:20.915Z,23.12
2022-10-10T11:47:56.414Z,23.14
2022-10-10T11:50:23.829Z,23.14
2022-10-10T11:52:51.951Z,23.20
2022-10-10T11:55:20.162Z,23.23
2022-10-10T11:57:48.110Z,23.15
2022-10-10T12:00:15.082Z,23.13
2022-10-10T12:02:41.482Z,23.21
2022-10-10T12:05:18.360Z,23.21
2022-10-10T12:07:59.896Z,23.22
2022-10-10T12:10:36.464Z,23.24
2022-10-10T12:13:09.895Z,23.27
2022-10-10T12:15:41.341Z,23.30
2022-10-10T12:18:22.521Z,23.25
2022-10-10T12:20:48.846Z,23.14
2022-10-10T12:23:20.130Z,23.20
2022-10-10T12:25:47.539Z,23.24
2022-10-10T12:28:14.031Z,23.20
2022-10-10T12:30:57.984Z,23.09
2022-10-10T12:33:33.865Z,23.04
2022-10-10T12:36:21.491Z,23.01
2022-10-10T12:39:07.647Z,22.58
2022-10-10T12:41:47.516Z,22.47
2022-10-10T12:44:23.599Z,22.44
2022-10-10T12:47:08.865Z,22.38
2022-10-10T12:49:35.195Z,22.32
2022-10-10T12:52:04.046Z,22.40
2022-10-10T12:54:31.771Z,22.39
2022-10-10T12:57:09.134Z,22.40
2022-10-10T12:59:35.638Z,22.86
2022-10-10T13:02:04.017Z,23.02
2022-10-10T13:04:30.382Z,23.12
2022-10-10T13:06:57.059Z,23.19
2022-10-10T13:09:31.069Z,23.22
2022-10-10T13:12:01.227Z,23.22
2022-10-10T13:14:36.279Z,23.23
2022-10-10T13:17:02.599Z,23.18
2022-10-10T13:19:28.955Z,23.08
2022-10-10T13:21:55.272Z,23.16
2022-10-10T13:24:27.054Z,23.18
2022-10-10T13:26:53.496Z,23.16
2022-10-10T13:29:28.823Z,23.15
2022-10-10T13:31:55.334Z,23.18
2022-10-10T13:34:24.876Z,23.42
2022-10-10T13:36:54.686Z,23.39
2022-10-10T13:39:21.192Z,23.45
2022-10-10T13:41:47.533Z,23.40
2022-10-10T13:44:14.397Z,23.55
2022-10-10T13:46:40.717Z,23.57
2022-10-10T13:49:33.351Z,23.52
2022-10-10T13:52:04.275Z,23.45
2022-10-10T13:54:43.637Z,23.40
2022-10-10T13:57:12.158Z,23.42
2022-10-10T13:59:38.485Z,23.43
2022-10-10T14:02:09.285Z,23.54
2022-10-10T14:04:37.873Z,23.62
2022-10-10T14:07:04.130Z,23.76
2022-10-10T14:09:37.593Z,23.72
2022-10-10T14:12:04.588Z,23.76
2022-10-10T14:14:49.652Z,23.61
2022-10-10T14:17:16.101Z,23.50
2022-10-10T14:19:43.111Z,23.54
2022-10-10T14:22:09.439Z,23.56
2022-10-10T14:24:35.779Z,23.72
2022-10-10T14:27:15.325Z,23.73
2022-10-10T14:29:41.653Z,23.60
2022-10-10T14:32:09.237Z,23.72
2022-10-10T14:34:35.584Z,23.70
2022-10-10T14:37:01.907Z,23.73
2022-10-10T14:39:28.236Z,23.59
2022-10-10T14:41:54.608Z,23.56
2022-10-10T14:44:20.930Z,23.55
2022-10-10T14:46:47.259Z,23.42
2022-10-10T14:49:17.948Z,23.50
2022-10-10T14:51:44.261Z,23.66
2022-10-10T14:54:12.622Z,23.53
2022-10-10T14:57:07.105Z,23.48
2022-10-10T14:59:47.628Z,23.46
2022-10-10T15:02:14.641Z,23.47
2022-10-10T15:04:40.960Z,23.44
2022-10-10T15:07:15.331Z,23.56
2022-10-10T15:09:56.470Z,23.60
2022-10-10T15:12:29.055Z,23.45
2022-10-10T15:14:55.481Z,23.44
2022-10-10T15:17:21.834Z,23.55
2022-10-10T15:19:48.229Z,23.41
2022-10-10T15:22:14.575Z,23.00
2022-10-10T15:24:40.953Z,23.03
2022-10-10T15:27:07.268Z,23.06
2022-10-10T15:29:33.587Z,23.05
2022-10-10T15:32:00.343Z,22.99
2022-10-10T15:34:26.747Z,23.05
2022-10-10T15:36:53.091Z,23.05
2022-10-10T15:39:19.413Z,23.06
2022-10-10T15:41:45.740Z,23.38
2022-10-10T15:44:12.361Z,23.35
2022-10-10T15:46:39.507Z,23.40
2022-10-10T15:49:05.822Z,23.35
2022-10-10T15:51:32.246Z,23.34
2022-10-10T15:53:58.734Z,23.38
2022-10-10T15:56:25.046Z,23.34
2022-10-10T15:58:57.460Z,23.38
2022-10-10T16:01:23.890Z,23.38
2022-10-10T16:03:50.259Z,23.59
2022-10-10T16:06:17.214Z,23.79
2022-10-10T16:08:43.633Z,23.85
2022-10-10T16:11:13.442Z,23.46
2022-10-10T16:13:39.952Z,23.33
2022-10-10T16:16:06.963Z,23.13
2022-10-10T16:18:37.815Z,22.80
2022-10-10T16:21:06.816Z,22.75
2022-10-10T16:23:33.222Z,22.69
2022-10-10T16:26:00.517Z,22.71
2022-10-10T16:28:27.184Z,22.71
2022-10-10T16:30:53.674Z,22.57
2022-10-10T16:33:20.300Z,22.89
2022-10-10T16:35:46.742Z,22.86
2022-10-10T16:38:13.265Z,22.64
2022-10-10T16:40:39.687Z,22.20
2022-10-10T16:43:06.129Z,22.30
2022-10-10T16:45:32.473Z,22.34
2022-10-10T16:47:58.819Z,22.42
2022-10-10T16:50:25.133Z,22.42
2022-10-10T16:52:51.458Z,22.43
2022-10-10T16:55:17.778Z,22.46
2022-10-10T16:57:44.099Z,22.43
2022-10-10T17:00:10.531Z,22.45
2022-10-10T17:02:38.834Z,22.42
2022-10-10T17:05:05.898Z,22.42
2022-10-10T17:07:32.409Z,22.38
2022-10-10T17:09:58.734Z,22.35
2022-10-10T17:12:25.067Z,22.36
2022-10-10T17:14:51.381Z,22.36
2022-10-10T17:17:19.238Z,22.31
2022-10-10T17:19:45.929Z,22.32
2022-10-10T17:22:12.233Z,22.30
2022-10-10T17:24:38.626Z,22.27
2022-10-10T17:27:05.118Z,22.24
2022-10-10T17:29:31.838Z,22.27
2022-10-10T17:32:00.607Z,22.45
2022-10-10T17:34:33.687Z,22.55
2022-10-10T17:37:00.589Z,22.65
2022-10-10T17:39:26.912Z,22.61
2022-10-10T17:41:53.297Z,22.37
2022-10-10T17:44:19.662Z,22.28
2022-10-10T17:46:46.070Z,22.34
2022-10-10T17:49:12.390Z,22.35
2022-10-10T17:51:39.025Z,22.41
2022-10-10T17:54:06.274Z,22.40
2022-10-10T17:56:32.582Z,22.52
2022-10-10T17:59:02.824Z,22.75
2022-10-10T18:01:50.425Z,22.58
2022-10-10T18:04:22.312Z,22.97
2022-10-10T18:07:05.617Z,23.08
2022-10-10T18:10:09.541Z,23.13
2022-10-10T18:12:51.472Z,22.82
2022-10-10T18:17:59.055Z,22.88
2022-10-10T18:20:25.396Z,22.63
2022-10-10T18:22:53.685Z,22.72
2022-10-10T18:25:25.127Z,22.63
2022-10-10T18:27:51.659Z,22.37
2022-10-10T18:30:17.997Z,22.37
2022-10-10T18:32:44.318Z,22.39
2022-10-10T18:35:10.633Z,22.35
2022-10-10T18:37:36.949Z,22.38
2022-10-10T18:40:03.550Z,22.38
2022-10-10T18:42:29.877Z,22.39
2022-10-10T18:44:56.213Z,22.29
2022-10-10T18:47:22.550Z,22.24
2022-10-10T18:49:48.887Z,22.26
2022-10-10T18:52:15.226Z,22.27
2022-10-10T18:54:41.546Z,22.24
2022-10-10T18:57:07.857Z,22.23
2022-10-10T18:59:34.188Z,22.22
2022-10-10T19:02:01.257Z,22.23
2022-10-10T19:04:27.576Z,22.23
2022-10-10T19:06:57.597Z,22.21
2022-10-10T19:09:24.208Z,22.20
2022-10-10T19:11:50.939Z,22.20
2022-10-10T19:14:18.037Z,22.17
2022-10-10T19:16:44.472Z,22.18
2022-10-10T19:19:11.282Z,22.20
2022-10-10T19:21:37.656Z,22.14
2022-10-10T19:24:04.424Z,22.09
2022-10-10T19:26:33.250Z,22.09
2022-10-10T19:29:04.348Z,22.11
2022-10-10T19:31:33.082Z,22.13
2022-10-10T19:33:59.733Z,22.13
2022-10-10T19:36:26.048Z,22.11
2022-10-10T19:38:52.381Z,22.09
2022-10-10T19:41:18.708Z,22.09
2022-10-10T19:43:46.566Z,22.06
2022-10-10T19:46:13.677Z,22.04
2022-10-10T19:48:40.113Z,22.07
2022-10-10T19:51:07.074Z,22.04
2022-10-10T19:53:33.594Z,22.07
2022-10-10T19:56:00.723Z,22.04
2022-10-10T19:58:27.768Z,22.03
2022-10-10T20:00:54.077Z,22.01
2022-10-10T20:03:20.389Z,22.00
2022-10-10T20:05:46.707Z,21.99
2022-10-10T20:08:13.318Z,22.00
2022-10-10T20:10:39.863Z,21.98
2022-10-10T20:13:06.175Z,22.03
2022-10-10T20:15:32.495Z,21.97
2022-10-10T20:17:58.817Z,22.02
2022-10-10T20:20:25.128Z,21.98
2022-10-10T20:22:51.433Z,21.94
2022-10-10T20:25:17.764Z,21.95
2022-10-10T20:27:44.098Z,21.98
2022-10-10T20:30:10.615Z,21.97
2022-10-10T20:32:36.941Z,22.00
2022-10-10T20:35:03.329Z,22.00
2022-10-10T20:37:29.649Z,21.96
2022-10-10T20:39:55.995Z,21.96
2022-10-10T20:42:22.306Z,21.97
2022-10-10T20:44:49.181Z,21.95
2022-10-10T20:47:15.501Z,21.96
2022-10-10T20:49:41.801Z,21.96
2022-10-10T20:52:08.109Z,21.95
2022-10-10T20:54:36.121Z,21.95
2022-10-10T20:57:02.429Z,21.95
2022-10-10T20:59:29.230Z,21.95
2022-10-10T21:01:55.602Z,21.94
2022-10-10T21:04:21.954Z,21.95
2022-10-10T21:06:48.298Z,21.94
2022-10-10T21:09:14.613Z,21.94
2022-10-10T21:11:41.075Z,21.94
2022-10-10T21:14:07.434Z,21.94
2022-10-10T21:16:34.741Z,21.91
2022-10-10T21:19:01.062Z,21.90
2022-10-10T21:21:28.233Z,21.91
2022-10-10T21:23:56.401Z,21.91
2022-10-10T21:26:23.646Z,21.92
2022-10-10T21:28:50.213Z,21.92
2022-10-10T21:31:17.525Z,21.92
2022-10-10T21:33:43.859Z,21.91
2022-10-10T21:36:10.403Z,21.91
2022-10-10T21:38:37.087Z,21.92
2022-10-10T21:41:04.214Z,21.94
2022-10-10T21:43:30.705Z,21.89
2022-10-10T21:46:02.013Z,21.90
2022-10-10T21:48:28.613Z,21.91
2022-10-10T21:50:58.416Z,21.92
2022-10-10T21:53:24.764Z,21.91
2022-10-10T21:55:51.094Z,21.91
2022-10-10T21:58:17.431Z,21.92
2022-10-10T22:00:43.792Z,21.88
2022-10-10T22:03:10.167Z,21.89
2022-10-10T22:05:36.492Z,21.89
2022-10-10T22:08:02.798Z,21.89
2022-10-10T22:10:29.124Z,21.88
2022-10-10T22:12:55.454Z,21.89
2022-10-10T22:15:21.992Z,21.88
2022-10-10T22:17:48.323Z,21.87
2022-10-10T22:20:14.654Z,21.89
2022-10-10T22:22:41.390Z,21.86
2022-10-10T22:25:11.637Z,21.86
2022-10-10T22:27:37.978Z,21.84
2022-10-10T22:30:04.817Z,21.86
2022-10-10T22:32:31.131Z,21.83
2022-10-10T22:34:57.860Z,21.83
2022-10-10T22:37:24.292Z,21.84
2022-10-10T22:39:50.639Z,21.83
2022-10-10T22:42:16.953Z,21.83
2022-10-10T22:44:43.282Z,21.84
2022-10-10T22:47:09.601Z,21.82
2022-10-10T22:49:37.886Z,21.83
2022-10-10T22:52:05.037Z,21.82
2022-10-10T22:54:31.578Z,21.82
2022-10-10T22:56:57.898Z,21.81
2022-10-10T22:59:24.227Z,21.82
2022-10-10T23:01:51.381Z,21.82
2022-10-10T23:04:17.768Z,21.82
2022-10-10T23:06:44.084Z,21.81
2022-10-10T23:09:11.633Z,21.81
2022-10-10T23:11:37.964Z,21.80
2022-10-10T23:14:04.454Z,21.80
2022-10-10T23:16:32.876Z,21.81
2022-10-10T23:18:59.355Z,21.83
2022-10-10T23:21:25.691Z,21.80
2022-10-10T23:23:51.994Z,21.81
2022-10-10T23:26:18.323Z,21.80
2022-10-10T23:28:44.905Z,21.78
2022-10-10T23:31:11.282Z,21.78
2022-10-10T23:33:38.110Z,21.79
2022-10-10T23:36:05.566Z,21.79
2022-10-10T23:38:32.874Z,21.79
2022-10-10T23:40:59.194Z,21.77
2022-10-10T23:43:25.568Z,21.75
2022-10-10T23:45:51.898Z,21.74
2022-10-10T23:48:18.222Z,21.77
2022-10-10T23:50:44.542Z,21.76
2022-10-10T23:53:10.886Z,21.76
2022-10-10T23:55:37.215Z,21.75
2022-10-10T23:58:03.548Z,21.72
